Ashuelot, New Hampshire
Current Conditions -  °F | °C
As of 6:55 PM on Wednesday 22 Oct 2014 (Local Time) from KEEN Reporting Station
Overcast Overcast  
Wind Chill: 43°   Ceiling: 2100
Heat Index: 48°   Visibility: 9mi
Dew Point: 39°   Wind: 14mph
Humidity: 71%   Direction: 360°N
Pressure: 29.97"   Gusts: NA
Location:  42.78°N, 72.42°W
Report Text: KEEN 222255Z AUTO 36012KT 9SM SCT015 BKN021 OVC027 09/04 A2997 RMK AO1 P0002
Loading
Personal Weather Stations






























Interactive Weather Map
Tropical Storm Tracking
New forecast layout! Learn more

10-Day Weather Forecast

Advertisements
Track Severe Weather on mobile